sensor_id;sensor_type;location;lat;lon;timestamp;P1;durP1;ratioP1;P2;durP2;ratioP2
26977;SDS011;56314;48.088;11.642;2022-07-25T00:00:12;15.20;;;13.70;;
26977;SDS011;56314;48.088;11.642;2022-07-25T00:02:38;15.63;;;13.40;;
26977;SDS011;56314;48.088;11.642;2022-07-25T00:05:04;15.43;;;13.88;;
26977;SDS011;56314;48.088;11.642;2022-07-25T00:07:29;15.27;;;13.75;;
26977;SDS011;56314;48.088;11.642;2022-07-25T00:09:55;15.40;;;13.82;;
26977;SDS011;56314;48.088;11.642;2022-07-25T00:12:21;14.30;;;12.90;;
26977;SDS011;56314;48.088;11.642;2022-07-25T00:14:47;15.48;;;13.93;;
26977;SDS011;56314;48.088;11.642;2022-07-25T00:17:13;15.57;;;13.98;;
26977;SDS011;56314;48.088;11.642;2022-07-25T00:19:38;14.52;;;13.02;;
26977;SDS011;56314;48.088;11.642;2022-07-25T00:22:04;15.82;;;13.60;;
26977;SDS011;56314;48.088;11.642;2022-07-25T00:24:30;14.95;;;13.55;;
26977;SDS011;56314;48.088;11.642;2022-07-25T00:26:55;15.85;;;13.25;;
26977;SDS011;56314;48.088;11.642;2022-07-25T00:29:21;15.13;;;13.63;;
26977;SDS011;56314;48.088;11.642;2022-07-25T00:31:46;15.73;;;14.30;;
26977;SDS011;56314;48.088;11.642;2022-07-25T00:34:12;15.00;;;13.55;;
26977;SDS011;56314;48.088;11.642;2022-07-25T00:36:37;17.42;;;14.85;;
26977;SDS011;56314;48.088;11.642;2022-07-25T00:39:03;16.90;;;15.20;;
26977;SDS011;56314;48.088;11.642;2022-07-25T00:41:29;16.90;;;15.05;;
26977;SDS011;56314;48.088;11.642;2022-07-25T00:43:54;16.77;;;15.00;;
26977;SDS011;56314;48.088;11.642;2022-07-25T00:46:20;17.42;;;15.82;;
26977;SDS011;56314;48.088;11.642;2022-07-25T00:48:45;16.55;;;14.93;;
26977;SDS011;56314;48.088;11.642;2022-07-25T00:51:10;16.23;;;14.63;;
26977;SDS011;56314;48.088;11.642;2022-07-25T00:53:36;16.85;;;15.25;;
26977;SDS011;56314;48.088;11.642;2022-07-25T00:56:03;17.00;;;15.23;;
26977;SDS011;56314;48.088;11.642;2022-07-25T00:58:29;16.92;;;15.15;;
26977;SDS011;56314;48.088;11.642;2022-07-25T01:00:55;16.30;;;14.82;;
26977;SDS011;56314;48.088;11.642;2022-07-25T01:03:20;17.58;;;15.43;;
26977;SDS011;56314;48.088;11.642;2022-07-25T01:05:46;16.00;;;14.50;;
26977;SDS011;56314;48.088;11.642;2022-07-25T01:08:11;17.02;;;14.40;;
26977;SDS011;56314;48.088;11.642;2022-07-25T01:10:37;17.45;;;15.75;;
26977;SDS011;56314;48.088;11.642;2022-07-25T01:13:03;18.67;;;16.25;;
26977;SDS011;56314;48.088;11.642;2022-07-25T01:15:29;17.73;;;15.40;;
26977;SDS011;56314;48.088;11.642;2022-07-25T01:17:55;17.70;;;15.80;;
26977;SDS011;56314;48.088;11.642;2022-07-25T01:20:23;17.67;;;15.82;;
26977;SDS011;56314;48.088;11.642;2022-07-25T01:22:51;17.05;;;15.25;;
26977;SDS011;56314;48.088;11.642;2022-07-25T01:25:17;17.50;;;15.70;;
26977;SDS011;56314;48.088;11.642;2022-07-25T01:27:43;18.45;;;16.20;;
26977;SDS011;56314;48.088;11.642;2022-07-25T01:30:11;17.33;;;15.73;;
26977;SDS011;56314;48.088;11.642;2022-07-25T01:32:39;17.58;;;15.75;;
26977;SDS011;56314;48.088;11.642;2022-07-25T01:35:06;17.45;;;15.75;;
26977;SDS011;56314;48.088;11.642;2022-07-25T01:37:32;17.63;;;15.93;;
26977;SDS011;56314;48.088;11.642;2022-07-25T01:39:58;16.95;;;15.25;;
26977;SDS011;56314;48.088;11.642;2022-07-25T01:42:23;17.92;;;16.13;;
26977;SDS011;56314;48.088;11.642;2022-07-25T01:44:49;17.38;;;15.57;;
26977;SDS011;56314;48.088;11.642;2022-07-25T01:47:14;18.05;;;16.15;;
26977;SDS011;56314;48.088;11.642;2022-07-25T01:49:41;16.88;;;15.35;;
26977;SDS011;56314;48.088;11.642;2022-07-25T01:52:07;17.88;;;16.08;;
26977;SDS011;56314;48.088;11.642;2022-07-25T01:54:32;20.70;;;16.20;;
26977;SDS011;56314;48.088;11.642;2022-07-25T01:56:58;19.13;;;16.80;;
26977;SDS011;56314;48.088;11.642;2022-07-25T01:59:23;17.40;;;15.40;;
26977;SDS011;56314;48.088;11.642;2022-07-25T02:01:49;17.33;;;15.52;;
26977;SDS011;56314;48.088;11.642;2022-07-25T02:04:14;18.30;;;16.48;;
26977;SDS011;56314;48.088;11.642;2022-07-25T02:06:39;19.38;;;15.73;;
26977;SDS011;56314;48.088;11.642;2022-07-25T02:09:08;17.83;;;15.93;;
26977;SDS011;56314;48.088;11.642;2022-07-25T02:11:34;16.95;;;15.35;;
26977;SDS011;56314;48.088;11.642;2022-07-25T02:14:00;18.75;;;16.83;;
26977;SDS011;56314;48.088;11.642;2022-07-25T02:16:26;17.90;;;16.00;;
26977;SDS011;56314;48.088;11.642;2022-07-25T02:18:51;18.23;;;16.10;;
26977;SDS011;56314;48.088;11.642;2022-07-25T02:21:17;18.38;;;16.40;;
26977;SDS011;56314;48.088;11.642;2022-07-25T02:23:43;17.67;;;15.98;;
26977;SDS011;56314;48.088;11.642;2022-07-25T02:26:09;17.73;;;16.00;;
26977;SDS011;56314;48.088;11.642;2022-07-25T02:28:35;17.73;;;16.08;;
26977;SDS011;56314;48.088;11.642;2022-07-25T02:31:00;20.02;;;16.08;;
26977;SDS011;56314;48.088;11.642;2022-07-25T02:33:26;17.08;;;15.48;;
26977;SDS011;56314;48.088;11.642;2022-07-25T02:35:51;17.10;;;15.40;;
26977;SDS011;56314;48.088;11.642;2022-07-25T02:38:16;17.10;;;15.40;;
26977;SDS011;56314;48.088;11.642;2022-07-25T02:40:45;17.67;;;15.88;;
26977;SDS011;56314;48.088;11.642;2022-07-25T02:43:11;17.65;;;15.85;;
26977;SDS011;56314;48.088;11.642;2022-07-25T02:45:37;17.70;;;16.00;;
26977;SDS011;56314;48.088;11.642;2022-07-25T02:48:03;18.52;;;16.30;;
26977;SDS011;56314;48.088;11.642;2022-07-25T02:50:29;17.73;;;15.85;;
26977;SDS011;56314;48.088;11.642;2022-07-25T02:52:54;18.42;;;16.45;;
26977;SDS011;56314;48.088;11.642;2022-07-25T02:55:19;17.60;;;15.80;;
26977;SDS011;56314;48.088;11.642;2022-07-25T02:57:45;17.35;;;15.65;;
26977;SDS011;56314;48.088;11.642;2022-07-25T03:00:10;17.55;;;15.90;;
26977;SDS011;56314;48.088;11.642;2022-07-25T03:02:36;17.02;;;15.43;;
26977;SDS011;56314;48.088;11.642;2022-07-25T03:05:04;17.63;;;15.73;;
26977;SDS011;56314;48.088;11.642;2022-07-25T03:07:37;18.83;;;16.92;;
26977;SDS011;56314;48.088;11.642;2022-07-25T03:10:03;19.45;;;17.05;;
26977;SDS011;56314;48.088;11.642;2022-07-25T03:12:30;19.40;;;17.27;;
26977;SDS011;56314;48.088;11.642;2022-07-25T03:14:59;18.40;;;16.48;;
26977;SDS011;56314;48.088;11.642;2022-07-25T03:17:25;18.80;;;16.90;;
26977;SDS011;56314;48.088;11.642;2022-07-25T03:19:52;18.55;;;16.63;;
26977;SDS011;56314;48.088;11.642;2022-07-25T03:22:18;17.52;;;15.90;;
26977;SDS011;56314;48.088;11.642;2022-07-25T03:24:43;21.13;;;17.30;;
26977;SDS011;56314;48.088;11.642;2022-07-25T03:27:09;17.92;;;15.43;;
26977;SDS011;56314;48.088;11.642;2022-07-25T03:29:34;18.27;;;16.08;;
26977;SDS011;56314;48.088;11.642;2022-07-25T03:32:00;17.75;;;15.95;;
26977;SDS011;56314;48.088;11.642;2022-07-25T03:34:26;16.42;;;14.70;;
26977;SDS011;56314;48.088;11.642;2022-07-25T03:36:52;21.52;;;16.15;;
26977;SDS011;56314;48.088;11.642;2022-07-25T03:39:18;17.73;;;16.00;;
26977;SDS011;56314;48.088;11.642;2022-07-25T03:41:44;17.02;;;15.32;;
26977;SDS011;56314;48.088;11.642;2022-07-25T03:44:10;18.25;;;15.18;;
26977;SDS011;56314;48.088;11.642;2022-07-25T03:46:35;18.27;;;15.80;;
26977;SDS011;56314;48.088;11.642;2022-07-25T03:49:01;17.50;;;15.82;;
26977;SDS011;56314;48.088;11.642;2022-07-25T03:51:26;17.45;;;15.65;;
26977;SDS011;56314;48.088;11.642;2022-07-25T03:53:52;17.45;;;15.75;;
26977;SDS011;56314;48.088;11.642;2022-07-25T03:56:45;19.23;;;17.17;;
26977;SDS011;56314;48.088;11.642;2022-07-25T03:59:13;18.30;;;16.40;;
26977;SDS011;56314;48.088;11.642;2022-07-25T04:01:40;18.42;;;16.52;;
26977;SDS011;56314;48.088;11.642;2022-07-25T04:04:07;18.25;;;16.52;;
26977;SDS011;56314;48.088;11.642;2022-07-25T04:06:33;18.02;;;16.02;;
26977;SDS011;56314;48.088;11.642;2022-07-25T04:08:59;17.33;;;15.60;;
26977;SDS011;56314;48.088;11.642;2022-07-25T04:11:24;17.33;;;15.73;;
26977;SDS011;56314;48.088;11.642;2022-07-25T04:13:52;17.48;;;15.80;;
26977;SDS011;56314;48.088;11.642;2022-07-25T04:16:17;17.75;;;16.00;;
26977;SDS011;56314;48.088;11.642;2022-07-25T04:18:44;17.95;;;16.15;;
26977;SDS011;56314;48.088;11.642;2022-07-25T04:21:09;18.92;;;16.70;;
26977;SDS011;56314;48.088;11.642;2022-07-25T04:23:34;18.45;;;16.75;;
26977;SDS011;56314;48.088;11.642;2022-07-25T04:26:00;18.17;;;16.38;;
26977;SDS011;56314;48.088;11.642;2022-07-25T04:28:26;18.08;;;16.27;;
26977;SDS011;56314;48.088;11.642;2022-07-25T04:30:52;17.95;;;16.05;;
26977;SDS011;56314;48.088;11.642;2022-07-25T04:33:18;17.20;;;15.48;;
26977;SDS011;56314;48.088;11.642;2022-07-25T04:35:43;18.15;;;16.45;;
26977;SDS011;56314;48.088;11.642;2022-07-25T04:38:09;18.00;;;16.00;;
26977;SDS011;56314;48.088;11.642;2022-07-25T04:40:35;17.85;;;15.95;;
26977;SDS011;56314;48.088;11.642;2022-07-25T04:43:01;17.08;;;15.32;;
26977;SDS011;56314;48.088;11.642;2022-07-25T04:45:26;17.95;;;16.23;;
26977;SDS011;56314;48.088;11.642;2022-07-25T04:47:52;18.00;;;16.23;;
26977;SDS011;56314;48.088;11.642;2022-07-25T04:50:17;17.20;;;14.93;;
26977;SDS011;56314;48.088;11.642;2022-07-25T04:52:43;17.23;;;15.43;;
26977;SDS011;56314;48.088;11.642;2022-07-25T04:55:08;17.08;;;15.00;;
26977;SDS011;56314;48.088;11.642;2022-07-25T04:57:34;15.38;;;13.55;;
26977;SDS011;56314;48.088;11.642;2022-07-25T05:00:00;15.50;;;14.00;;
26977;SDS011;56314;48.088;11.642;2022-07-25T05:02:26;14.23;;;12.38;;
26977;SDS011;56314;48.088;11.642;2022-07-25T05:04:51;15.98;;;14.38;;
26977;SDS011;56314;48.088;11.642;2022-07-25T05:07:17;15.13;;;13.68;;
26977;SDS011;56314;48.088;11.642;2022-07-25T05:09:42;15.52;;;13.93;;
26977;SDS011;56314;48.088;11.642;2022-07-25T05:12:09;14.30;;;12.90;;
26977;SDS011;56314;48.088;11.642;2022-07-25T05:14:34;13.77;;;12.48;;
26977;SDS011;56314;48.088;11.642;2022-07-25T05:16:59;15.27;;;13.35;;
26977;SDS011;56314;48.088;11.642;2022-07-25T05:19:25;13.45;;;12.13;;
26977;SDS011;56314;48.088;11.642;2022-07-25T05:21:50;14.38;;;12.90;;
26977;SDS011;56314;48.088;11.642;2022-07-25T05:24:16;14.57;;;13.18;;
26977;SDS011;56314;48.088;11.642;2022-07-25T05:26:41;15.07;;;13.68;;
26977;SDS011;56314;48.088;11.642;2022-07-25T05:29:07;14.70;;;13.32;;
26977;SDS011;56314;48.088;11.642;2022-07-25T05:31:32;12.57;;;11.48;;
26977;SDS011;56314;48.088;11.642;2022-07-25T05:33:57;13.82;;;12.43;;
26977;SDS011;56314;48.088;11.642;2022-07-25T05:36:23;13.95;;;12.63;;
26977;SDS011;56314;48.088;11.642;2022-07-25T05:38:48;13.15;;;11.85;;
26977;SDS011;56314;48.088;11.642;2022-07-25T05:41:13;14.25;;;12.85;;
26977;SDS011;56314;48.088;11.642;2022-07-25T05:43:40;12.38;;;11.27;;
26977;SDS011;56314;48.088;11.642;2022-07-25T05:46:10;13.13;;;12.02;;
26977;SDS011;56314;48.088;11.642;2022-07-25T05:48:35;15.10;;;11.63;;
26977;SDS011;56314;48.088;11.642;2022-07-25T05:51:00;13.32;;;12.07;;
26977;SDS011;56314;48.088;11.642;2022-07-25T05:53:26;13.57;;;12.38;;
26977;SDS011;56314;48.088;11.642;2022-07-25T05:55:52;12.45;;;11.35;;
26977;SDS011;56314;48.088;11.642;2022-07-25T05:58:17;13.70;;;12.32;;
26977;SDS011;56314;48.088;11.642;2022-07-25T06:00:43;12.25;;;11.25;;
26977;SDS011;56314;48.088;11.642;2022-07-25T06:03:08;11.93;;;10.80;;
26977;SDS011;56314;48.088;11.642;2022-07-25T06:05:33;12.85;;;11.75;;
26977;SDS011;56314;48.088;11.642;2022-07-25T06:07:59;13.68;;;12.07;;
26977;SDS011;56314;48.088;11.642;2022-07-25T06:10:25;13.32;;;12.10;;
26977;SDS011;56314;48.088;11.642;2022-07-25T06:12:50;12.05;;;11.05;;
26977;SDS011;56314;48.088;11.642;2022-07-25T06:15:16;14.85;;;13.25;;
26977;SDS011;56314;48.088;11.642;2022-07-25T06:17:41;12.88;;;11.43;;
26977;SDS011;56314;48.088;11.642;2022-07-25T06:20:07;12.57;;;11.50;;
26977;SDS011;56314;48.088;11.642;2022-07-25T06:22:33;13.07;;;11.77;;
26977;SDS011;56314;48.088;11.642;2022-07-25T06:25:00;11.63;;;10.50;;
26977;SDS011;56314;48.088;11.642;2022-07-25T06:27:26;15.52;;;11.95;;
26977;SDS011;56314;48.088;11.642;2022-07-25T06:29:51;12.02;;;10.98;;
26977;SDS011;56314;48.088;11.642;2022-07-25T06:32:16;14.80;;;11.68;;
26977;SDS011;56314;48.088;11.642;2022-07-25T06:34:42;14.23;;;11.38;;
26977;SDS011;56314;48.088;11.642;2022-07-25T06:37:07;12.43;;;11.13;;
26977;SDS011;56314;48.088;11.642;2022-07-25T06:39:33;14.52;;;11.25;;
26977;SDS011;56314;48.088;11.642;2022-07-25T06:41:59;12.73;;;11.43;;
26977;SDS011;56314;48.088;11.642;2022-07-25T06:44:25;14.35;;;11.88;;
26977;SDS011;56314;48.088;11.642;2022-07-25T06:46:50;13.60;;;12.30;;
26977;SDS011;56314;48.088;11.642;2022-07-25T06:49:16;12.07;;;10.88;;
26977;SDS011;56314;48.088;11.642;2022-07-25T06:51:41;11.90;;;10.95;;
26977;SDS011;56314;48.088;11.642;2022-07-25T06:54:07;11.68;;;10.73;;
26977;SDS011;56314;48.088;11.642;2022-07-25T06:56:32;11.70;;;10.57;;
26977;SDS011;56314;48.088;11.642;2022-07-25T06:58:58;11.60;;;10.50;;
26977;SDS011;56314;48.088;11.642;2022-07-25T07:01:24;11.48;;;10.48;;
26977;SDS011;56314;48.088;11.642;2022-07-25T07:03:49;11.32;;;10.30;;
26977;SDS011;56314;48.088;11.642;2022-07-25T07:06:14;10.50;;;9.55;;
26977;SDS011;56314;48.088;11.642;2022-07-25T07:08:40;10.77;;;9.88;;
26977;SDS011;56314;48.088;11.642;2022-07-25T07:11:05;11.00;;;10.07;;
26977;SDS011;56314;48.088;11.642;2022-07-25T07:13:31;11.23;;;10.38;;
26977;SDS011;56314;48.088;11.642;2022-07-25T07:15:58;10.95;;;9.95;;
26977;SDS011;56314;48.088;11.642;2022-07-25T07:18:23;11.48;;;10.23;;
26977;SDS011;56314;48.088;11.642;2022-07-25T07:20:48;11.02;;;9.98;;
26977;SDS011;56314;48.088;11.642;2022-07-25T07:23:15;11.05;;;10.05;;
26977;SDS011;56314;48.088;11.642;2022-07-25T07:25:41;10.90;;;9.70;;
26977;SDS011;56314;48.088;11.642;2022-07-25T07:28:06;11.30;;;10.40;;
26977;SDS011;56314;48.088;11.642;2022-07-25T07:30:32;11.88;;;9.88;;
26977;SDS011;56314;48.088;11.642;2022-07-25T07:32:58;10.95;;;10.07;;
26977;SDS011;56314;48.088;11.642;2022-07-25T07:35:23;10.93;;;9.77;;
26977;SDS011;56314;48.088;11.642;2022-07-25T07:37:49;10.60;;;9.70;;
26977;SDS011;56314;48.088;11.642;2022-07-25T07:40:16;11.15;;;10.18;;
26977;SDS011;56314;48.088;11.642;2022-07-25T07:42:43;10.68;;;9.77;;
26977;SDS011;56314;48.088;11.642;2022-07-25T07:45:11;10.48;;;9.48;;
26977;SDS011;56314;48.088;11.642;2022-07-25T07:47:38;11.20;;;10.30;;
26977;SDS011;56314;48.088;11.642;2022-07-25T07:50:03;10.65;;;9.73;;
26977;SDS011;56314;48.088;11.642;2022-07-25T07:52:29;10.75;;;9.95;;
26977;SDS011;56314;48.088;11.642;2022-07-25T07:54:55;11.30;;;10.40;;
26977;SDS011;56314;48.088;11.642;2022-07-25T07:57:39;11.43;;;10.40;;
26977;SDS011;56314;48.088;11.642;2022-07-25T08:00:04;11.57;;;10.65;;
26977;SDS011;56314;48.088;11.642;2022-07-25T08:02:31;11.13;;;10.23;;
26977;SDS011;56314;48.088;11.642;2022-07-25T08:04:56;11.07;;;10.18;;
26977;SDS011;56314;48.088;11.642;2022-07-25T08:07:21;11.88;;;10.88;;
26977;SDS011;56314;48.088;11.642;2022-07-25T08:09:47;11.63;;;10.70;;
26977;SDS011;56314;48.088;11.642;2022-07-25T08:12:13;11.02;;;10.02;;
26977;SDS011;56314;48.088;11.642;2022-07-25T08:14:39;11.35;;;10.35;;
26977;SDS011;56314;48.088;11.642;2022-07-25T08:17:04;11.25;;;10.25;;
26977;SDS011;56314;48.088;11.642;2022-07-25T08:19:29;10.68;;;9.85;;
26977;SDS011;56314;48.088;11.642;2022-07-25T08:21:55;11.57;;;10.57;;
26977;SDS011;56314;48.088;11.642;2022-07-25T08:24:20;12.30;;;11.25;;
26977;SDS011;56314;48.088;11.642;2022-07-25T08:26:46;11.32;;;10.30;;
26977;SDS011;56314;48.088;11.642;2022-07-25T08:29:11;11.75;;;10.52;;
26977;SDS011;56314;48.088;11.642;2022-07-25T08:31:36;11.00;;;10.05;;
26977;SDS011;56314;48.088;11.642;2022-07-25T08:34:02;12.70;;;11.48;;
26977;SDS011;56314;48.088;11.642;2022-07-25T08:36:27;11.52;;;10.60;;
26977;SDS011;56314;48.088;11.642;2022-07-25T08:38:53;11.90;;;10.90;;
26977;SDS011;56314;48.088;11.642;2022-07-25T08:41:18;11.23;;;10.23;;
26977;SDS011;56314;48.088;11.642;2022-07-25T08:43:43;11.48;;;10.40;;
26977;SDS011;56314;48.088;11.642;2022-07-25T08:46:11;10.93;;;10.07;;
26977;SDS011;56314;48.088;11.642;2022-07-25T08:48:38;10.98;;;9.98;;
26977;SDS011;56314;48.088;11.642;2022-07-25T08:51:04;11.65;;;10.75;;
26977;SDS011;56314;48.088;11.642;2022-07-25T08:53:31;19.95;;;11.55;;
26977;SDS011;56314;48.088;11.642;2022-07-25T08:55:57;12.23;;;11.00;;
26977;SDS011;56314;48.088;11.642;2022-07-25T08:58:22;9.98;;;9.10;;
26977;SDS011;56314;48.088;11.642;2022-07-25T09:00:47;10.25;;;9.45;;
26977;SDS011;56314;48.088;11.642;2022-07-25T09:03:13;11.20;;;10.20;;
26977;SDS011;56314;48.088;11.642;2022-07-25T09:05:38;11.18;;;9.95;;
26977;SDS011;56314;48.088;11.642;2022-07-25T09:08:08;10.85;;;9.48;;
26977;SDS011;56314;48.088;11.642;2022-07-25T09:10:38;10.55;;;9.63;;
26977;SDS011;56314;48.088;11.642;2022-07-25T09:13:10;10.93;;;10.00;;
26977;SDS011;56314;48.088;11.642;2022-07-25T09:15:49;10.55;;;9.48;;
26977;SDS011;56314;48.088;11.642;2022-07-25T09:18:18;10.57;;;9.77;;
26977;SDS011;56314;48.088;11.642;2022-07-25T09:20:57;11.07;;;9.75;;
26977;SDS011;56314;48.088;11.642;2022-07-25T09:23:31;10.98;;;10.07;;
26977;SDS011;56314;48.088;11.642;2022-07-25T09:26:02;10.50;;;9.70;;
26977;SDS011;56314;48.088;11.642;2022-07-25T09:28:40;10.80;;;9.23;;
26977;SDS011;56314;48.088;11.642;2022-07-25T09:31:07;10.80;;;9.77;;
26977;SDS011;56314;48.088;11.642;2022-07-25T09:33:33;9.57;;;8.77;;
26977;SDS011;56314;48.088;11.642;2022-07-25T09:36:12;9.73;;;8.82;;
26977;SDS011;56314;48.088;11.642;2022-07-25T09:38:37;17.30;;;9.75;;
26977;SDS011;56314;48.088;11.642;2022-07-25T09:41:03;10.13;;;9.23;;
26977;SDS011;56314;48.088;11.642;2022-07-25T09:43:39;10.75;;;9.10;;
26977;SDS011;56314;48.088;11.642;2022-07-25T09:46:05;10.48;;;8.30;;
26977;SDS011;56314;48.088;11.642;2022-07-25T09:48:31;9.38;;;8.57;;
26977;SDS011;56314;48.088;11.642;2022-07-25T09:50:57;8.75;;;7.90;;
26977;SDS011;56314;48.088;11.642;2022-07-25T09:53:23;7.82;;;7.20;;
26977;SDS011;56314;48.088;11.642;2022-07-25T09:55:49;9.38;;;7.07;;
26977;SDS011;56314;48.088;11.642;2022-07-25T09:58:17;7.40;;;6.90;;
26977;SDS011;56314;48.088;11.642;2022-07-25T10:00:43;7.95;;;7.25;;
26977;SDS011;56314;48.088;11.642;2022-07-25T10:08:23;7.60;;;6.95;;
26977;SDS011;56314;48.088;11.642;2022-07-25T10:10:50;8.02;;;7.43;;
26977;SDS011;56314;48.088;11.642;2022-07-25T10:13:16;7.78;;;7.15;;
26977;SDS011;56314;48.088;11.642;2022-07-25T10:15:53;8.00;;;7.30;;
26977;SDS011;56314;48.088;11.642;2022-07-25T10:18:20;8.10;;;7.40;;
26977;SDS011;56314;48.088;11.642;2022-07-25T10:20:49;7.47;;;6.82;;
26977;SDS011;56314;48.088;11.642;2022-07-25T10:23:26;9.77;;;6.43;;
26977;SDS011;56314;48.088;11.642;2022-07-25T10:26:02;7.47;;;6.78;;
26977;SDS011;56314;48.088;11.642;2022-07-25T10:28:40;7.95;;;7.35;;
26977;SDS011;56314;48.088;11.642;2022-07-25T10:33:41;7.57;;;6.97;;
26977;SDS011;56314;48.088;11.642;2022-07-25T10:36:07;8.07;;;7.38;;
26977;SDS011;56314;48.088;11.642;2022-07-25T10:38:36;7.65;;;7.10;;
26977;SDS011;56314;48.088;11.642;2022-07-25T10:41:04;8.07;;;7.40;;
26977;SDS011;56314;48.088;11.642;2022-07-25T10:43:35;8.20;;;7.50;;
26977;SDS011;56314;48.088;11.642;2022-07-25T10:46:09;8.02;;;7.32;;
26977;SDS011;56314;48.088;11.642;2022-07-25T10:48:37;8.25;;;7.45;;
26977;SDS011;56314;48.088;11.642;2022-07-25T10:51:04;8.20;;;7.63;;
26977;SDS011;56314;48.088;11.642;2022-07-25T10:56:09;8.30;;;7.55;;
26977;SDS011;56314;48.088;11.642;2022-07-25T10:58:41;7.47;;;6.80;;
26977;SDS011;56314;48.088;11.642;2022-07-25T11:01:08;8.30;;;7.47;;
26977;SDS011;56314;48.088;11.642;2022-07-25T11:03:33;8.25;;;7.47;;
26977;SDS011;56314;48.088;11.642;2022-07-25T11:05:59;8.25;;;7.47;;
26977;SDS011;56314;48.088;11.642;2022-07-25T11:08:34;14.35;;;8.02;;
26977;SDS011;56314;48.088;11.642;2022-07-25T11:11:00;7.65;;;6.88;;
26977;SDS011;56314;48.088;11.642;2022-07-25T11:13:26;7.80;;;6.60;;
26977;SDS011;56314;48.088;11.642;2022-07-25T11:15:54;6.60;;;5.95;;
26977;SDS011;56314;48.088;11.642;2022-07-25T11:18:37;6.38;;;5.80;;
26977;SDS011;56314;48.088;11.642;2022-07-25T11:21:05;6.07;;;5.50;;
26977;SDS011;56314;48.088;11.642;2022-07-25T11:23:32;5.65;;;5.20;;
26977;SDS011;56314;48.088;11.642;2022-07-25T11:26:02;6.00;;;5.50;;
26977;SDS011;56314;48.088;11.642;2022-07-25T11:29:02;6.43;;;5.82;;
26977;SDS011;56314;48.088;11.642;2022-07-25T11:31:21;5.60;;;5.20;;
26977;SDS011;56314;48.088;11.642;2022-07-25T11:33:47;6.18;;;5.57;;
26977;SDS011;56314;48.088;11.642;2022-07-25T11:36:13;5.97;;;5.38;;
26977;SDS011;56314;48.088;11.642;2022-07-25T11:38:39;5.90;;;5.30;;
26977;SDS011;56314;48.088;11.642;2022-07-25T11:41:05;6.38;;;5.88;;
26977;SDS011;56314;48.088;11.642;2022-07-25T11:43:31;5.78;;;5.38;;
26977;SDS011;56314;48.088;11.642;2022-07-25T11:45:58;5.68;;;5.20;;
26977;SDS011;56314;48.088;11.642;2022-07-25T11:48:36;5.70;;;5.25;;
26977;SDS011;56314;48.088;11.642;2022-07-25T11:53:39;5.53;;;4.90;;
26977;SDS011;56314;48.088;11.642;2022-07-25T11:56:17;5.53;;;4.90;;
26977;SDS011;56314;48.088;11.642;2022-07-25T11:58:57;7.20;;;5.20;;
26977;SDS011;56314;48.088;11.642;2022-07-25T12:01:24;5.57;;;5.07;;
26977;SDS011;56314;48.088;11.642;2022-07-25T12:03:50;5.80;;;5.38;;
26977;SDS011;56314;48.088;11.642;2022-07-25T12:06:16;8.70;;;4.80;;
26977;SDS011;56314;48.088;11.642;2022-07-25T12:08:41;5.57;;;5.07;;
26977;SDS011;56314;48.088;11.642;2022-07-25T12:11:20;45.63;;;7.63;;
26977;SDS011;56314;48.088;11.642;2022-07-25T12:13:47;7.68;;;5.28;;
26977;SDS011;56314;48.088;11.642;2022-07-25T12:16:13;5.88;;;5.28;;
26977;SDS011;56314;48.088;11.642;2022-07-25T12:18:39;5.50;;;5.10;;
26977;SDS011;56314;48.088;11.642;2022-07-25T12:21:04;6.40;;;5.63;;
26977;SDS011;56314;48.088;11.642;2022-07-25T12:23:30;5.70;;;5.30;;
26977;SDS011;56314;48.088;11.642;2022-07-25T12:25:55;7.00;;;5.38;;
26977;SDS011;56314;48.088;11.642;2022-07-25T12:28:21;9.00;;;5.57;;
26977;SDS011;56314;48.088;11.642;2022-07-25T12:30:46;6.68;;;6.00;;
26977;SDS011;56314;48.088;11.642;2022-07-25T12:33:13;7.38;;;6.70;;
26977;SDS011;56314;48.088;11.642;2022-07-25T12:35:42;5.72;;;5.22;;
26977;SDS011;56314;48.088;11.642;2022-07-25T12:38:08;7.88;;;6.55;;
26977;SDS011;56314;48.088;11.642;2022-07-25T12:40:35;9.10;;;7.75;;
26977;SDS011;56314;48.088;11.642;2022-07-25T12:43:00;6.50;;;6.00;;
26977;SDS011;56314;48.088;11.642;2022-07-25T12:45:26;6.43;;;5.85;;
26977;SDS011;56314;48.088;11.642;2022-07-25T12:47:51;6.20;;;5.70;;
26977;SDS011;56314;48.088;11.642;2022-07-25T12:50:17;6.95;;;6.32;;
26977;SDS011;56314;48.088;11.642;2022-07-25T12:52:43;6.65;;;6.13;;
26977;SDS011;56314;48.088;11.642;2022-07-25T12:55:10;6.88;;;6.18;;
26977;SDS011;56314;48.088;11.642;2022-07-25T12:57:39;7.05;;;6.43;;
26977;SDS011;56314;48.088;11.642;2022-07-25T13:00:06;6.15;;;5.72;;
26977;SDS011;56314;48.088;11.642;2022-07-25T13:02:34;7.25;;;6.30;;
26977;SDS011;56314;48.088;11.642;2022-07-25T13:04:59;6.43;;;5.82;;
26977;SDS011;56314;48.088;11.642;2022-07-25T13:07:25;6.70;;;6.18;;
26977;SDS011;56314;48.088;11.642;2022-07-25T13:09:50;6.88;;;6.28;;
26977;SDS011;56314;48.088;11.642;2022-07-25T13:12:15;7.03;;;6.20;;
26977;SDS011;56314;48.088;11.642;2022-07-25T13:14:41;8.15;;;6.90;;
26977;SDS011;56314;48.088;11.642;2022-07-25T13:17:06;6.75;;;6.05;;
26977;SDS011;56314;48.088;11.642;2022-07-25T13:19:32;6.45;;;5.95;;
26977;SDS011;56314;48.088;11.642;2022-07-25T13:21:57;7.18;;;6.47;;
26977;SDS011;56314;48.088;11.642;2022-07-25T13:24:22;8.77;;;6.63;;
26977;SDS011;56314;48.088;11.642;2022-07-25T13:26:48;6.70;;;6.20;;
26977;SDS011;56314;48.088;11.642;2022-07-25T13:29:13;7.90;;;6.45;;
26977;SDS011;56314;48.088;11.642;2022-07-25T13:31:39;8.10;;;6.38;;
26977;SDS011;56314;48.088;11.642;2022-07-25T13:34:06;7.63;;;6.90;;
26977;SDS011;56314;48.088;11.642;2022-07-25T13:36:32;7.85;;;6.57;;
26977;SDS011;56314;48.088;11.642;2022-07-25T13:38:58;7.68;;;6.75;;
26977;SDS011;56314;48.088;11.642;2022-07-25T13:41:24;7.25;;;6.57;;
26977;SDS011;56314;48.088;11.642;2022-07-25T13:43:49;6.85;;;6.25;;
26977;SDS011;56314;48.088;11.642;2022-07-25T13:46:15;7.43;;;6.72;;
26977;SDS011;56314;48.088;11.642;2022-07-25T13:48:40;8.10;;;7.40;;
26977;SDS011;56314;48.088;11.642;2022-07-25T13:51:05;7.20;;;6.60;;
26977;SDS011;56314;48.088;11.642;2022-07-25T13:53:31;7.50;;;6.80;;
26977;SDS011;56314;48.088;11.642;2022-07-25T13:55:58;7.75;;;7.10;;
26977;SDS011;56314;48.088;11.642;2022-07-25T13:58:24;9.00;;;5.97;;
26977;SDS011;56314;48.088;11.642;2022-07-25T14:00:50;7.00;;;6.35;;
26977;SDS011;56314;48.088;11.642;2022-07-25T14:03:15;6.53;;;6.00;;
26977;SDS011;56314;48.088;11.642;2022-07-25T14:05:41;7.93;;;6.05;;
26977;SDS011;56314;48.088;11.642;2022-07-25T14:08:06;6.40;;;5.88;;
26977;SDS011;56314;48.088;11.642;2022-07-25T14:10:32;6.97;;;6.28;;
26977;SDS011;56314;48.088;11.642;2022-07-25T14:12:58;6.03;;;5.53;;
26977;SDS011;56314;48.088;11.642;2022-07-25T14:15:23;6.32;;;5.78;;
26977;SDS011;56314;48.088;11.642;2022-07-25T14:17:49;6.18;;;5.57;;
26977;SDS011;56314;48.088;11.642;2022-07-25T14:20:14;6.75;;;6.03;;
26977;SDS011;56314;48.088;11.642;2022-07-25T14:22:40;6.55;;;5.90;;
26977;SDS011;56314;48.088;11.642;2022-07-25T14:25:08;5.20;;;4.80;;
26977;SDS011;56314;48.088;11.642;2022-07-25T14:27:33;5.57;;;5.18;;